Time;durP1;ratioP1;P1;durP2;ratioP2;P2;SDS_P1;SDS_P2;PMS_P1;PMS_P2;Temp;Humidity;BMP_temperature;BMP_pressure;BME280_temperature;BME280_humidity;BME280_pressure;Samples;Min_cycle;Max_cycle;Signal;HPM_P1;HPM_P2
2023/05/06 00:00:32;;;;;;;14.90;11.20;;;12.30;99.90;;;;;;5099758;28;20036;-58
2023/05/06 00:02:59;;;;;;;15.35;10.95;;;12.20;99.90;;;;;;5099051;28;20080;-58
2023/05/06 00:05:25;;;;;;;14.23;10.98;;;12.50;99.90;;;;;;5080436;28;20055;-58
2023/05/06 00:07:51;;;;;;;16.15;11.45;;;12.20;99.90;;;;;;5099889;28;20153;-58
2023/05/06 00:10:17;;;;;;;15.50;11.43;;;12.10;99.90;;;;;;5097863;28;20044;-59
2023/05/06 00:12:43;;;;;;;15.52;10.55;;;12.40;99.90;;;;;;5100464;28;20107;-58
2023/05/06 00:15:10;;;;;;;14.60;11.50;;;12.60;99.90;;;;;;5098178;28;20040;-58
2023/05/06 00:17:36;;;;;;;15.02;10.20;;;12.60;99.90;;;;;;5099725;28;20044;-59
2023/05/06 00:20:02;;;;;;;15.43;10.95;;;12.10;99.90;;;;;;5098999;28;20050;-59
2023/05/06 00:22:28;;;;;;;16.10;11.07;;;12.20;99.90;;;;;;5080374;28;20058;-58
2023/05/06 00:24:54;;;;;;;15.50;11.00;;;12.30;99.90;;;;;;5099698;28;20092;-58
2023/05/06 00:27:19;;;;;;;14.82;10.43;;;12.60;99.90;;;;;;5097702;28;20379;-59
2023/05/06 00:29:45;;;;;;;15.52;11.45;;;12.40;99.90;;;;;;5099762;28;20039;-58
2023/05/06 00:32:10;;;;;;;14.60;10.32;;;12.40;99.90;;;;;;5097610;28;20051;-58
2023/05/06 00:34:36;;;;;;;15.52;10.88;;;12.10;99.90;;;;;;5099746;28;20284;-58
2023/05/06 00:37:02;;;;;;;15.65;11.85;;;12.40;99.90;;;;;;5098319;28;20096;-58
2023/05/06 00:39:29;;;;;;;15.43;10.32;;;12.30;99.90;;;;;;5098410;28;20044;-58
2023/05/06 00:42:01;;;;;;;15.35;10.82;;;12.50;99.90;;;;;;5098957;28;20036;-58
2023/05/06 00:44:30;;;;;;;13.95;11.15;;;12.40;99.90;;;;;;5097555;28;20044;-58
2023/05/06 00:46:58;;;;;;;16.02;11.27;;;12.10;99.90;;;;;;5099598;28;20091;-58
2023/05/06 00:49:24;;;;;;;14.75;10.85;;;12.20;99.90;;;;;;5097691;28;20064;-59
2023/05/06 00:51:52;;;;;;;13.73;10.80;;;12.10;99.90;;;;;;5098846;28;20609;-59
2023/05/06 00:54:18;;;;;;;15.38;10.70;;;12.10;99.90;;;;;;5097792;28;20086;-58
2023/05/06 00:56:44;;;;;;;15.65;10.93;;;12.20;99.90;;;;;;5098036;28;20040;-58
2023/05/06 00:59:09;;;;;;;16.08;11.48;;;12.60;99.90;;;;;;5098711;28;20060;-59
2023/05/06 01:01:36;;;;;;;14.60;11.13;;;12.40;99.90;;;;;;5097198;28;20044;-59
2023/05/06 01:04:02;;;;;;;17.00;11.48;;;12.10;99.90;;;;;;5099479;28;20048;-58
2023/05/06 01:06:45;;;;;;;16.65;11.80;;;12.10;99.90;;;;;;5078500;28;20055;-58
2023/05/06 01:09:20;;;;;;;15.63;11.23;;;12.10;99.90;;;;;;5098531;28;20107;-58
2023/05/06 01:11:55;;;;;;;16.80;11.77;;;12.30;99.90;;;;;;5098513;28;20044;-58
2023/05/06 01:15:13;;;;;;;14.35;10.82;;;11.90;99.90;;;;;;5097155;28;20055;-59
2023/05/06 01:17:45;;;;;;;15.65;10.93;;;12.10;99.90;;;;;;5015821;28;20501;-58
2023/05/06 01:20:14;;;;;;;15.80;11.18;;;12.20;99.90;;;;;;5084792;28;20059;-59
2023/05/06 01:22:40;;;;;;;16.00;11.27;;;12.20;99.90;;;;;;5097324;28;20036;-58
2023/05/06 01:25:06;;;;;;;16.70;11.40;;;11.90;99.90;;;;;;5080819;28;20044;-58
2023/05/06 01:27:31;;;;;;;19.13;12.13;;;12.20;99.90;;;;;;5096581;28;20471;-58
2023/05/06 01:29:59;;;;;;;19.45;12.95;;;12.00;99.90;;;;;;5098861;28;20077;-58
2023/05/06 01:32:56;;;;;;;16.55;11.70;;;12.30;99.90;;;;;;5096751;28;20488;-58
2023/05/06 01:35:48;;;;;;;14.70;12.07;;;12.20;99.90;;;;;;5097116;28;20044;-58
2023/05/06 01:38:23;;;;;;;15.98;11.65;;;12.30;99.90;;;;;;5098846;28;20044;-58
2023/05/06 01:40:53;;;;;;;17.08;12.15;;;11.80;99.90;;;;;;5096725;28;20047;-59
2023/05/06 01:43:20;;;;;;;17.52;12.10;;;12.10;99.90;;;;;;5098205;28;20028;-59
2023/05/06 01:45:52;;;;;;;14.40;11.77;;;11.90;99.90;;;;;;5097702;28;20424;-58
2023/05/06 01:48:25;;;;;;;17.87;12.13;;;12.10;99.90;;;;;;5096949;28;20040;-58
2023/05/06 01:50:51;;;;;;;16.73;11.88;;;12.10;99.90;;;;;;5098567;28;20491;-58
2023/05/06 01:53:16;;;;;;;19.00;13.00;;;11.80;99.90;;;;;;5096423;28;20036;-58
2023/05/06 01:55:42;;;;;;;16.65;11.85;;;12.10;99.90;;;;;;5098832;28;20677;-58
2023/05/06 01:58:08;;;;;;;16.45;12.88;;;12.00;99.90;;;;;;5096736;28;20059;-58
2023/05/06 02:00:33;;;;;;;19.05;12.20;;;11.60;99.90;;;;;;5097170;28;20123;-58
2023/05/06 02:02:59;;;;;;;18.00;12.75;;;11.50;99.90;;;;;;5097585;28;20044;-58
2023/05/06 02:05:25;;;;;;;18.13;13.27;;;11.50;99.90;;;;;;5078733;28;20064;-59
2023/05/06 02:07:51;;;;;;;18.73;13.52;;;11.50;99.90;;;;;;5102733;28;20048;-58
2023/05/06 02:10:17;;;;;;;16.58;11.90;;;11.70;99.90;;;;;;5100169;28;20055;-58
2023/05/06 02:12:43;;;;;;;17.33;12.68;;;11.90;99.90;;;;;;5102801;28;20071;-59
2023/05/06 02:15:09;;;;;;;17.92;12.75;;;11.40;99.90;;;;;;5100612;28;20170;-58
2023/05/06 02:17:36;;;;;;;18.73;13.05;;;11.90;99.90;;;;;;5101996;28;20052;-58
2023/05/06 02:20:02;;;;;;;18.85;13.48;;;11.60;99.90;;;;;;5101437;28;20040;-58
2023/05/06 02:22:28;;;;;;;18.13;13.75;;;11.90;99.90;;;;;;5100981;28;20040;-58
2023/05/06 02:24:54;;;;;;;20.25;14.32;;;11.90;99.90;;;;;;5102217;28;20052;-58
2023/05/06 02:27:19;;;;;;;19.15;13.75;;;11.80;99.90;;;;;;5100192;28;20044;-58
2023/05/06 02:29:45;;;;;;;19.98;13.52;;;11.40;99.90;;;;;;5102007;28;20041;-58
2023/05/06 02:32:11;;;;;;;19.77;12.73;;;11.50;99.90;;;;;;5100024;28;20071;-58
2023/05/06 02:34:36;;;;;;;18.65;13.73;;;11.40;99.90;;;;;;5101535;28;20044;-59
2023/05/06 02:37:02;;;;;;;20.55;14.82;;;11.70;99.90;;;;;;5101052;28;20040;-57
2023/05/06 02:39:28;;;;;;;19.92;14.07;;;11.50;99.90;;;;;;5100601;28;20066;-58
2023/05/06 02:41:53;;;;;;;23.00;14.73;;;11.50;99.90;;;;;;5101683;28;20534;-59
2023/05/06 02:44:19;;;;;;;20.08;13.98;;;11.40;99.90;;;;;;5099551;28;20056;-58
2023/05/06 02:46:45;;;;;;;18.33;12.93;;;11.60;99.90;;;;;;5101888;28;20040;-58
2023/05/06 02:49:10;;;;;;;18.27;13.68;;;11.30;99.90;;;;;;5099781;28;20058;-59
2023/05/06 02:51:36;;;;;;;18.08;13.68;;;11.60;99.90;;;;;;5101791;28;20495;-58
2023/05/06 02:54:02;;;;;;;17.25;13.18;;;11.30;99.90;;;;;;5082097;28;20084;-58
2023/05/06 02:56:27;;;;;;;17.70;12.68;;;11.60;99.90;;;;;;5100638;28;20036;-58
2023/05/06 02:58:53;;;;;;;16.55;12.75;;;11.30;99.90;;;;;;5100700;28;20086;-58
2023/05/06 03:01:19;;;;;;;16.83;12.95;;;11.30;99.90;;;;;;5099837;28;20035;-58
2023/05/06 03:03:44;;;;;;;16.67;12.32;;;11.50;99.90;;;;;;5101529;28;20040;-58
2023/05/06 03:06:10;;;;;;;18.25;12.00;;;11.50;99.90;;;;;;5080907;28;20123;-58
2023/05/06 03:08:36;;;;;;;16.67;12.02;;;11.40;99.90;;;;;;5101481;28;20082;-58
2023/05/06 03:11:01;;;;;;;17.30;12.20;;;11.10;99.90;;;;;;5081407;28;20044;-58
2023/05/06 03:13:27;;;;;;;14.18;11.68;;;11.30;99.90;;;;;;5100590;28;20052;-59
2023/05/06 03:15:53;;;;;;;16.48;12.15;;;11.50;99.90;;;;;;5100588;28;20609;-58
2023/05/06 03:18:19;;;;;;;18.63;12.65;;;11.20;99.90;;;;;;5098972;28;20601;-57
2023/05/06 03:20:47;;;;;;;16.00;11.85;;;11.10;99.90;;;;;;5101028;28;20572;-57
2023/05/06 03:23:13;;;;;;;16.98;12.45;;;11.40;99.90;;;;;;5099084;28;20068;-57
2023/05/06 03:25:39;;;;;;;17.02;11.88;;;11.20;99.90;;;;;;5101171;28;20055;-57
2023/05/06 03:28:04;;;;;;;14.82;11.57;;;11.30;99.90;;;;;;5099128;28;20036;-56
2023/05/06 03:30:30;;;;;;;17.00;11.60;;;11.40;99.90;;;;;;5099952;28;20051;-57
2023/05/06 03:32:59;;;;;;;16.17;12.27;;;11.40;99.90;;;;;;5100174;28;20040;-57
2023/05/06 03:35:25;;;;;;;14.73;11.57;;;11.30;99.90;;;;;;5099285;28;20047;-57
2023/05/06 03:37:50;;;;;;;17.33;12.07;;;11.50;99.90;;;;;;5100718;28;20044;-57
2023/05/06 03:40:16;;;;;;;15.20;11.77;;;11.50;99.90;;;;;;5098186;28;20073;-57
2023/05/06 03:42:42;;;;;;;16.80;11.95;;;11.10;99.90;;;;;;5100901;28;20082;-57
2023/05/06 03:45:08;;;;;;;15.40;11.30;;;11.40;99.90;;;;;;5098871;28;20047;-56
2023/05/06 03:47:34;;;;;;;17.08;11.55;;;11.40;99.90;;;;;;5100164;28;20043;-57
2023/05/06 03:49:59;;;;;;;15.25;11.40;;;11.40;99.90;;;;;;5099692;28;20088;-57
2023/05/06 03:52:25;;;;;;;15.88;11.05;;;11.40;99.90;;;;;;5080998;28;20074;-57
2023/05/06 03:54:51;;;;;;;13.50;10.80;;;11.40;99.90;;;;;;5100645;28;20044;-57
2023/05/06 03:57:16;;;;;;;17.13;11.32;;;11.30;99.90;;;;;;5098077;28;20039;-56
2023/05/06 03:59:42;;;;;;;16.02;11.35;;;11.10;99.90;;;;;;5100302;28;20067;-57
2023/05/06 04:02:08;;;;;;;15.32;11.63;;;11.30;99.90;;;;;;5098657;28;20129;-57
2023/05/06 04:04:33;;;;;;;16.33;11.45;;;11.10;99.90;;;;;;5100124;28;20455;-57
2023/05/06 04:06:59;;;;;;;15.55;11.35;;;11.20;99.90;;;;;;5099068;28;20514;-56
2023/05/06 04:09:25;;;;;;;16.05;11.82;;;11.50;99.90;;;;;;5099151;28;20044;-57
2023/05/06 04:11:51;;;;;;;15.23;11.73;;;11.50;99.90;;;;;;5099821;28;20047;-57
2023/05/06 04:14:16;;;;;;;17.25;12.57;;;11.20;99.90;;;;;;5098279;28;20036;-57
2023/05/06 04:16:42;;;;;;;17.30;11.85;;;11.20;99.90;;;;;;5100270;28;20060;-57
2023/05/06 04:19:08;;;;;;;17.70;11.38;;;11.40;99.90;;;;;;5097960;28;20036;-57
2023/05/06 04:21:33;;;;;;;16.42;10.35;;;11.40;99.90;;;;;;5100020;28;20043;-56
2023/05/06 04:23:59;;;;;;;15.05;11.05;;;11.20;99.90;;;;;;5098745;28;20075;-57
2023/05/06 04:26:25;;;;;;;13.32;10.10;;;11.30;99.90;;;;;;5098703;28;20036;-57
2023/05/06 04:28:50;;;;;;;14.60;9.93;;;11.20;99.90;;;;;;5098155;28;20032;-57
2023/05/06 04:31:16;;;;;;;11.35;8.40;;;11.40;99.90;;;;;;5098239;28;20032;-57
2023/05/06 04:33:42;;;;;;;13.13;8.90;;;11.40;99.90;;;;;;5099711;28;20098;-57
2023/05/06 04:36:08;;;;;;;10.40;7.45;;;11.30;99.90;;;;;;5097374;28;20040;-57
2023/05/06 04:38:34;;;;;;;12.60;7.43;;;11.30;99.90;;;;;;5099745;28;20073;-57
2023/05/06 04:41:00;;;;;;;10.68;7.38;;;11.30;99.90;;;;;;5097614;28;20048;-57
2023/05/06 04:43:29;;;;;;;9.18;7.10;;;11.10;99.90;;;;;;5098937;28;20075;-57
2023/05/06 04:45:54;;;;;;;10.40;7.25;;;11.40;99.90;;;;;;5098989;28;20044;-57
2023/05/06 04:48:21;;;;;;;10.52;7.13;;;11.50;99.90;;;;;;5097530;28;20032;-57
2023/05/06 04:50:47;;;;;;;11.10;7.20;;;11.40;99.90;;;;;;5099374;28;20075;-57
2023/05/06 04:53:14;;;;;;;10.15;6.75;;;11.40;99.90;;;;;;5097004;28;20040;-57
2023/05/06 04:55:40;;;;;;;9.80;7.55;;;11.50;99.90;;;;;;5099332;28;20040;-57
2023/05/06 04:58:06;;;;;;;10.05;8.05;;;11.30;99.90;;;;;;5097721;28;20509;-57
2023/05/06 05:00:32;;;;;;;10.20;7.50;;;11.50;99.90;;;;;;5098454;28;20414;-58
2023/05/06 05:02:58;;;;;;;13.85;7.63;;;11.50;99.90;;;;;;5098507;28;20048;-56
2023/05/06 05:05:26;;;;;;;11.70;7.63;;;11.70;99.90;;;;;;5078993;28;20114;-57
2023/05/06 05:07:51;;;;;;;11.80;8.57;;;11.30;99.90;;;;;;5099221;28;20040;-58
2023/05/06 05:10:17;;;;;;;14.35;9.38;;;11.50;99.90;;;;;;5096922;28;20130;-57
2023/05/06 05:12:42;;;;;;;13.27;9.25;;;11.40;99.90;;;;;;5099374;28;20088;-57
2023/05/06 05:15:09;;;;;;;13.68;9.25;;;11.80;99.90;;;;;;5097472;28;20059;-57
2023/05/06 05:17:34;;;;;;;16.45;10.15;;;11.70;99.90;;;;;;5098348;28;20079;-57
2023/05/06 05:20:00;;;;;;;15.68;10.70;;;11.90;99.90;;;;;;5098130;28;20036;-57
2023/05/06 05:22:26;;;;;;;15.98;11.18;;;11.70;99.90;;;;;;5097199;28;20499;-56
2023/05/06 05:24:51;;;;;;;16.55;11.25;;;12.00;99.90;;;;;;5098441;28;20051;-57
2023/05/06 05:27:17;;;;;;;16.48;11.45;;;11.60;99.90;;;;;;5096538;28;20040;-57
2023/05/06 05:29:43;;;;;;;17.10;11.82;;;12.00;99.90;;;;;;5098921;28;20047;-57
2023/05/06 05:32:08;;;;;;;15.00;11.30;;;12.00;99.90;;;;;;5096978;28;20047;-57
2023/05/06 05:34:34;;;;;;;17.13;11.60;;;12.00;99.90;;;;;;5098301;28;20032;-57
2023/05/06 05:36:59;;;;;;;16.50;10.60;;;11.70;99.90;;;;;;5097467;28;20040;-57
2023/05/06 05:39:25;;;;;;;16.80;11.85;;;11.60;99.90;;;;;;5096963;28;20047;-57
2023/05/06 05:41:51;;;;;;;14.63;10.85;;;11.70;99.90;;;;;;5098257;28;20100;-56
2023/05/06 05:44:16;;;;;;;15.50;10.95;;;12.00;99.90;;;;;;5096834;28;20061;-56
2023/05/06 05:46:42;;;;;;;16.02;10.88;;;12.00;99.90;;;;;;5098498;28;20044;-57
2023/05/06 05:49:08;;;;;;;15.57;10.52;;;12.00;99.90;;;;;;5095848;28;20585;-57
2023/05/06 05:51:33;;;;;;;16.02;11.18;;;11.80;99.90;;;;;;5080147;28;20047;-57
2023/05/06 05:53:59;;;;;;;16.88;11.18;;;12.00;99.90;;;;;;5097256;28;20052;-55
2023/05/06 05:56:25;;;;;;;19.05;12.43;;;11.70;99.90;;;;;;5079341;28;20087;-57
2023/05/06 05:58:51;;;;;;;17.38;12.68;;;11.60;99.90;;;;;;5097244;28;20072;-57
2023/05/06 06:01:16;;;;;;;17.58;12.57;;;11.70;99.90;;;;;;5096447;28;20697;-57
2023/05/06 06:03:42;;;;;;;16.88;11.73;;;11.70;99.90;;;;;;5098448;28;20051;-57
2023/05/06 06:06:08;;;;;;;19.25;13.02;;;11.80;99.90;;;;;;5078023;28;20121;-57
2023/05/06 06:08:34;;;;;;;19.65;13.40;;;12.20;99.90;;;;;;5098402;28;20056;-57
2023/05/06 06:11:04;;;;;;;18.45;13.57;;;11.90;99.90;;;;;;5096827;28;20045;-57
2023/05/06 06:13:30;;;;;;;17.67;13.13;;;12.00;99.90;;;;;;5097171;28;20044;-58
2023/05/06 06:15:56;;;;;;;18.50;12.82;;;12.30;99.90;;;;;;5097741;28;20061;-57
2023/05/06 06:18:23;;;;;;;19.48;13.48;;;12.00;99.90;;;;;;5096478;28;20092;-57
2023/05/06 06:20:48;;;;;;;19.77;12.88;;;12.30;99.90;;;;;;5098334;28;20055;-57
2023/05/06 06:23:14;;;;;;;18.90;13.23;;;12.40;99.90;;;;;;5090438;28;20036;-57
2023/05/06 06:25:40;;;;;;;19.67;12.48;;;12.10;99.90;;;;;;5094605;28;20048;-57
2023/05/06 06:28:05;;;;;;;21.30;14.05;;;12.30;99.90;;;;;;5092428;28;20036;-58
2023/05/06 06:30:31;;;;;;;19.25;13.52;;;12.60;99.90;;;;;;5093399;28;20044;-58
2023/05/06 06:33:00;;;;;;;20.45;14.15;;;12.20;99.90;;;;;;5093396;28;20040;-58
2023/05/06 06:35:26;;;;;;;20.70;13.75;;;12.30;99.90;;;;;;5091702;28;20636;-57
2023/05/06 06:37:52;;;;;;;19.20;13.43;;;12.80;99.90;;;;;;5094299;28;20046;-57
2023/05/06 06:40:21;;;;;;;20.33;13.88;;;12.80;99.90;;;;;;5091882;28;20040;-58
2023/05/06 06:42:47;;;;;;;19.85;14.40;;;12.40;99.90;;;;;;5094094;28;20085;-58
2023/05/06 06:45:13;;;;;;;22.38;13.55;;;12.70;99.90;;;;;;5092409;28;20044;-58
2023/05/06 06:47:39;;;;;;;21.17;14.02;;;12.90;99.90;;;;;;5092864;28;20125;-57
2023/05/06 06:50:07;;;;;;;19.27;13.48;;;12.70;99.90;;;;;;5092788;28;20067;-57
2023/05/06 06:52:33;;;;;;;19.55;13.10;;;12.90;99.90;;;;;;5094003;28;20050;-57
2023/05/06 06:54:59;;;;;;;20.58;13.20;;;13.00;99.90;;;;;;5079456;28;20048;-58
2023/05/06 06:57:24;;;;;;;19.45;13.32;;;12.50;99.90;;;;;;5095061;28;20047;-57
2023/05/06 06:59:52;;;;;;;19.20;12.80;;;13.10;99.90;;;;;;5097521;28;20053;-57
2023/05/06 07:02:18;;;;;;;17.95;12.80;;;12.50;99.90;;;;;;5095687;28;20058;-56
2023/05/06 07:04:44;;;;;;;18.92;13.38;;;13.00;99.90;;;;;;5096773;28;20048;-57
2023/05/06 07:07:10;;;;;;;19.83;13.50;;;13.00;99.90;;;;;;5096838;28;20169;-57
2023/05/06 07:09:35;;;;;;;19.15;12.80;;;13.10;99.90;;;;;;5077148;28;20036;-57
2023/05/06 07:12:01;;;;;;;18.42;12.73;;;13.10;99.90;;;;;;5097436;28;20078;-58
2023/05/06 07:14:27;;;;;;;17.52;12.43;;;13.10;99.90;;;;;;5095274;28;20153;-60
2023/05/06 07:16:52;;;;;;;23.25;13.55;;;13.10;99.90;;;;;;5079738;28;20044;-59
2023/05/06 07:19:18;;;;;;;19.73;12.77;;;12.70;99.90;;;;;;5094975;28;20044;-58
2023/05/06 07:21:43;;;;;;;17.15;11.48;;;12.80;99.90;;;;;;5096552;28;20044;-58
2023/05/06 07:24:09;;;;;;;21.10;12.88;;;13.20;99.90;;;;;;5096071;28;20576;-58
2023/05/06 07:26:36;;;;;;;17.42;12.30;;;12.80;99.90;;;;;;5077695;28;20036;-58
2023/05/06 07:29:03;;;;;;;18.90;12.85;;;13.20;99.90;;;;;;5096757;28;20036;-58
2023/05/06 07:31:30;;;;;;;18.42;13.02;;;13.10;99.90;;;;;;5095063;28;20056;-58
2023/05/06 07:33:57;;;;;;;19.40;13.00;;;13.30;99.90;;;;;;5096555;28;20106;-57
2023/05/06 07:36:23;;;;;;;19.92;12.35;;;13.00;99.90;;;;;;5095189;28;20083;-58
2023/05/06 07:38:49;;;;;;;19.65;13.13;;;13.50;99.90;;;;;;5096641;28;20060;-58
2023/05/06 07:41:15;;;;;;;21.33;13.15;;;13.50;99.90;;;;;;5095777;28;20040;-58
2023/05/06 07:43:41;;;;;;;19.85;13.35;;;13.40;99.90;;;;;;5095588;28;20055;-58
2023/05/06 07:46:07;;;;;;;18.10;12.10;;;13.20;99.90;;;;;;5077997;28;20070;-57
2023/05/06 07:48:32;;;;;;;20.45;12.73;;;13.30;99.90;;;;;;5094431;28;20155;-58
2023/05/06 07:50:59;;;;;;;18.05;13.15;;;13.70;99.90;;;;;;5097072;28;20163;-57
2023/05/06 07:53:25;;;;;;;18.05;10.65;;;13.70;99.90;;;;;;5094440;28;20119;-58
2023/05/06 07:55:57;;;;;;;16.30;11.10;;;13.30;99.90;;;;;;5096268;28;20044;-57
2023/05/06 07:58:23;;;;;;;16.05;10.32;;;13.30;99.90;;;;;;5095351;28;20474;-57
2023/05/06 08:00:48;;;;;;;18.45;10.75;;;13.30;99.90;;;;;;5094844;28;20044;-57
2023/05/06 08:03:15;;;;;;;17.27;10.25;;;13.80;99.90;;;;;;5077735;28;20044;-58
2023/05/06 08:05:41;;;;;;;14.50;8.93;;;13.90;99.90;;;;;;5094070;28;20496;-59
2023/05/06 08:08:06;;;;;;;14.70;9.68;;;14.10;99.90;;;;;;5095605;28;20058;-58
2023/05/06 08:10:32;;;;;;;14.38;9.70;;;13.80;99.90;;;;;;5093278;28;20040;-58
2023/05/06 08:12:58;;;;;;;15.68;10.27;;;14.00;99.90;;;;;;5095967;28;20046;-58
2023/05/06 08:15:24;;;;;;;15.15;10.93;;;14.40;99.90;;;;;;5094886;28;20123;-58
2023/05/06 08:17:50;;;;;;;15.43;10.38;;;14.00;99.90;;;;;;5094645;28;20671;-58
2023/05/06 08:20:15;;;;;;;16.08;10.30;;;14.40;99.90;;;;;;5077469;28;20123;-58
2023/05/06 08:22:41;;;;;;;13.02;8.52;;;14.40;99.90;;;;;;5093325;28;20056;-58
2023/05/06 08:25:07;;;;;;;14.48;9.20;;;14.30;99.90;;;;;;5096351;28;20114;-58
2023/05/06 08:27:33;;;;;;;15.00;9.40;;;14.60;99.90;;;;;;5093302;28;20055;-58
2023/05/06 08:29:58;;;;;;;13.90;8.82;;;14.50;99.90;;;;;;5095156;28;20044;-58
2023/05/06 08:32:24;;;;;;;14.20;9.40;;;14.80;99.90;;;;;;5094467;28;20043;-58
2023/05/06 08:34:50;;;;;;;15.73;10.25;;;15.00;99.90;;;;;;5094539;28;20059;-58
2023/05/06 08:37:15;;;;;;;14.65;9.35;;;15.00;99.90;;;;;;5094586;28;20089;-59
2023/05/06 08:39:41;;;;;;;13.48;8.35;;;15.00;99.90;;;;;;5087164;28;20044;-59
2023/05/06 08:42:10;;;;;;;11.50;7.90;;;15.10;99.90;;;;;;5095091;28;20032;-59
2023/05/06 08:44:37;;;;;;;13.30;8.07;;;15.10;99.90;;;;;;5093270;28;20048;-59
2023/05/06 08:47:02;;;;;;;12.40;8.02;;;15.40;99.90;;;;;;5094979;28;20095;-61
2023/05/06 08:49:28;;;;;;;14.48;7.80;;;15.50;99.90;;;;;;5093937;28;20067;-61
2023/05/06 08:51:55;;;;;;;14.57;8.95;;;15.50;99.90;;;;;;5094423;28;20044;-58
2023/05/06 08:54:24;;;;;;;12.85;8.45;;;15.40;99.90;;;;;;5094768;28;20086;-58
2023/05/06 08:56:55;;;;;;;14.18;8.38;;;15.50;99.90;;;;;;5093354;28;20098;-57
2023/05/06 08:59:23;;;;;;;12.85;8.30;;;15.80;99.90;;;;;;5093958;28;20048;-58
2023/05/06 09:01:50;;;;;;;15.07;9.02;;;16.00;99.90;;;;;;5095526;28;20056;-58
2023/05/06 09:04:17;;;;;;;12.68;8.73;;;15.90;99.90;;;;;;5097841;28;20111;-59
2023/05/06 09:06:42;;;;;;;12.57;9.07;;;15.90;99.90;;;;;;5097501;28;20044;-58
2023/05/06 09:09:08;;;;;;;14.90;9.48;;;16.00;99.90;;;;;;5096391;28;20048;-59
2023/05/06 09:11:37;;;;;;;13.95;9.57;;;16.20;99.90;;;;;;5079546;28;20413;-58
2023/05/06 09:14:15;;;;;;;15.32;10.00;;;16.00;99.90;;;;;;5095223;28;20048;-57
2023/05/06 09:16:46;;;;;;;14.23;9.70;;;16.10;99.90;;;;;;5097262;28;20510;-58
2023/05/06 09:19:12;;;;;;;14.07;9.75;;;16.00;99.90;;;;;;5096367;28;20040;-58
2023/05/06 09:21:41;;;;;;;12.48;8.52;;;15.90;99.90;;;;;;5098466;28;20036;-57
2023/05/06 09:24:09;;;;;;;13.27;8.57;;;16.10;99.90;;;;;;5097555;28;20040;-56
2023/05/06 09:26:36;;;;;;;13.57;9.63;;;16.10;99.90;;;;;;5097053;28;20044;-58
2023/05/06 09:29:03;;;;;;;14.52;9.85;;;16.20;99.90;;;;;;5098313;28;20040;-57
2023/05/06 09:31:29;;;;;;;14.27;9.82;;;16.10;99.90;;;;;;5096436;28;20044;-57
2023/05/06 09:33:56;;;;;;;13.45;9.40;;;16.30;99.90;;;;;;5098596;28;20055;-57
2023/05/06 09:36:23;;;;;;;17.38;10.02;;;16.50;99.90;;;;;;5096878;28;20040;-57
2023/05/06 09:38:49;;;;;;;13.48;9.95;;;16.50;99.90;;;;;;5097827;28;20052;-58
2023/05/06 09:41:19;;;;;;;12.10;8.98;;;16.80;99.90;;;;;;5097635;28;20048;-58
2023/05/06 09:43:48;;;;;;;11.95;8.32;;;16.90;99.90;;;;;;5096845;28;20056;-58
2023/05/06 09:46:17;;;;;;;14.10;9.02;;;17.20;99.90;;;;;;5097609;28;20040;-58
2023/05/06 09:48:45;;;;;;;13.35;9.55;;;17.40;99.90;;;;;;5095686;28;20036;-57
2023/05/06 09:51:11;;;;;;;11.10;7.90;;;17.40;99.90;;;;;;5098042;28;20484;-58
2023/05/06 09:53:38;;;;;;;12.18;7.50;;;17.40;99.90;;;;;;5078143;28;20384;-58
2023/05/06 09:56:07;;;;;;;12.32;8.00;;;17.70;99.90;;;;;;5097679;28;20040;-58
2023/05/06 09:58:34;;;;;;;10.63;7.40;;;17.80;99.90;;;;;;5097369;28;20039;-58
2023/05/06 10:01:05;;;;;;;10.90;6.78;;;17.70;99.90;;;;;;5096874;28;20129;-57
2023/05/06 10:03:32;;;;;;;11.80;7.00;;;17.70;99.90;;;;;;5098523;28;20092;-58
2023/05/06 10:06:01;;;;;;;11.93;6.50;;;17.90;99.90;;;;;;5095592;28;20052;-58
2023/05/06 10:08:27;;;;;;;14.15;8.30;;;18.00;99.90;;;;;;5098391;28;20048;-58
2023/05/06 10:10:53;;;;;;;11.23;8.00;;;18.00;99.90;;;;;;5096461;28;20131;-58
2023/05/06 10:13:20;;;;;;;11.05;7.40;;;17.90;99.90;;;;;;5097584;28;20044;-58
2023/05/06 10:15:47;;;;;;;12.95;8.35;;;18.00;99.90;;;;;;5097886;28;20374;-57
2023/05/06 10:18:15;;;;;;;11.50;7.60;;;17.90;99.90;;;;;;5096355;28;20055;-59
2023/05/06 10:20:43;;;;;;;12.55;7.80;;;18.10;99.90;;;;;;5097410;28;20055;-58
2023/05/06 10:23:24;;;;;;;14.50;8.27;;;18.10;99.90;;;;;;5095284;28;20063;-58
2023/05/06 10:25:54;;;;;;;12.30;7.75;;;18.10;99.90;;;;;;5097236;28;20662;-58
2023/05/06 10:28:21;;;;;;;11.48;7.18;;;17.90;99.90;;;;;;5100260;28;20519;-58
2023/05/06 10:30:48;;;;;;;11.43;7.72;;;17.80;99.90;;;;;;5100012;28;20430;-58
2023/05/06 10:33:15;;;;;;;11.20;7.45;;;17.60;99.90;;;;;;5101586;28;20047;-57
2023/05/06 10:35:45;;;;;;;11.82;7.57;;;17.40;99.90;;;;;;5099318;28;20040;-58
2023/05/06 10:38:15;;;;;;;14.00;8.07;;;17.40;99.90;;;;;;5101881;28;20047;-57
2023/05/06 10:40:42;;;;;;;11.57;8.30;;;17.30;99.90;;;;;;5099786;28;20414;-57
2023/05/06 10:43:30;;;;;;;13.48;9.13;;;17.20;99.90;;;;;;5101061;28;20950;-58
2023/05/06 10:46:09;;;;;;;14.27;9.85;;;17.00;99.90;;;;;;5099979;28;20040;-57
2023/05/06 10:48:59;;;;;;;13.55;8.98;;;16.90;99.90;;;;;;5097640;28;20051;-56
2023/05/06 10:51:27;;;;;;;13.52;9.20;;;16.90;99.90;;;;;;5100977;28;20050;-58
2023/05/06 10:54:25;;;;;;;13.27;9.73;;;16.90;99.90;;;;;;5081425;28;20047;-59
2023/05/06 10:57:06;;;;;;;13.80;10.15;;;16.70;99.90;;;;;;5043334;28;20134;-58
2023/05/06 10:59:32;;;;;;;14.13;9.37;;;16.80;99.90;;;;;;5101429;28;20053;-58
2023/05/06 11:02:03;;;;;;;13.52;10.15;;;16.80;99.90;;;;;;5099116;28;20109;-57
2023/05/06 11:04:30;;;;;;;14.98;9.95;;;16.80;99.90;;;;;;5100683;28;20044;-58
2023/05/06 11:07:06;;;;;;;15.05;10.05;;;16.80;99.90;;;;;;5099263;28;20059;-58
2023/05/06 11:09:32;;;;;;;13.50;9.63;;;16.90;99.90;;;;;;5098984;28;20383;-58
2023/05/06 11:12:03;;;;;;;13.73;10.02;;;17.00;99.90;;;;;;5099781;28;20736;-58
2023/05/06 11:14:37;;;;;;;11.85;9.30;;;17.00;99.90;;;;;;5095724;28;20099;-58
2023/05/06 11:17:04;;;;;;;14.48;10.25;;;17.10;99.90;;;;;;5100966;28;20044;-57
2023/05/06 11:19:32;;;;;;;14.55;9.93;;;17.10;99.90;;;;;;5099939;28;20401;-58
2023/05/06 11:22:00;;;;;;;14.75;10.20;;;17.20;99.90;;;;;;5099839;28;20044;-58
2023/05/06 11:24:28;;;;;;;14.13;10.05;;;17.30;99.90;;;;;;5081259;28;20040;-59
2023/05/06 11:26:55;;;;;;;15.00;11.52;;;17.30;99.90;;;;;;5097751;28;20096;-57
2023/05/06 11:29:21;;;;;;;15.25;11.25;;;17.30;99.90;;;;;;5100324;28;20092;-58
2023/05/06 11:31:48;;;;;;;15.27;11.57;;;17.40;99.90;;;;;;5079572;28;20040;-58
2023/05/06 11:34:21;;;;;;;17.70;12.27;;;17.40;99.90;;;;;;5081629;28;20047;-58
2023/05/06 11:37:02;;;;;;;18.75;12.68;;;17.40;99.90;;;;;;5097026;28;20040;-58
2023/05/06 11:39:29;;;;;;;16.95;13.38;;;17.40;99.90;;;;;;5096356;28;20036;-58
2023/05/06 11:42:06;;;;;;;17.27;13.32;;;17.40;99.90;;;;;;5100139;28;20047;-58
2023/05/06 11:44:33;;;;;;;18.48;13.68;;;17.30;99.90;;;;;;5096439;28;20115;-57
2023/05/06 11:47:01;;;;;;;17.88;13.85;;;17.30;99.90;;;;;;5099330;28;20028;-58
2023/05/06 11:49:27;;;;;;;18.38;14.32;;;17.20;99.90;;;;;;5098790;28;20032;-58
2023/05/06 11:51:55;;;;;;;16.50;13.63;;;17.10;99.90;;;;;;5099038;28;20407;-58
2023/05/06 11:54:22;;;;;;;17.90;14.43;;;17.20;99.90;;;;;;5098598;28;20039;-58
2023/05/06 11:56:53;;;;;;;18.55;15.07;;;17.00;99.90;;;;;;5080478;28;20044;-58
2023/05/06 11:59:38;;;;;;;18.95;14.27;;;17.00;99.90;;;;;;5100360;28;20051;-57
2023/05/06 12:02:11;;;;;;;18.20;13.75;;;16.90;99.90;;;;;;5098395;28;20040;-65
2023/05/06 12:04:47;;;;;;;16.88;11.60;;;16.50;99.90;;;;;;5099354;28;20475;-64
2023/05/06 12:07:13;;;;;;;16.42;10.93;;;16.30;99.90;;;;;;5099204;28;20059;-61
2023/05/06 12:09:47;;;;;;;16.50;9.48;;;15.60;99.90;;;;;;5079805;28;20481;-62
2023/05/06 12:12:18;;;;;;;11.98;7.05;;;15.40;99.90;;;;;;5099274;28;20081;-60
2023/05/06 12:14:45;;;;;;;9.45;4.68;;;15.50;99.90;;;;;;5096851;28;20051;-62
2023/05/06 12:17:11;;;;;;;6.80;3.90;;;15.10;99.90;;;;;;5099581;28;20048;-62
2023/05/06 12:19:37;;;;;;;7.95;4.03;;;15.10;99.90;;;;;;5098511;28;20088;-60
2023/05/06 12:22:25;;;;;;;8.48;3.35;;;14.90;99.90;;;;;;5098591;28;20100;-60
2023/05/06 12:24:51;;;;;;;6.45;2.58;;;15.10;99.90;;;;;;5097571;28;20032;-60
2023/05/06 12:27:33;;;;;;;6.72;3.33;;;15.20;99.90;;;;;;5096121;28;20118;-60
2023/05/06 12:29:59;;;;;;;8.30;3.40;;;15.40;99.90;;;;;;5095249;28;20736;-60
2023/05/06 12:32:25;;;;;;;6.05;2.50;;;15.40;99.90;;;;;;5097163;28;20047;-59